Time;durP1;ratioP1;P1;durP2;ratioP2;P2;SDS_P1;SDS_P2;PMS_P1;PMS_P2;Temp;Humidity;BMP_temperature;BMP_pressure;BME280_temperature;BME280_humidity;BME280_pressure;Samples;Min_cycle;Max_cycle;Signal;HPM_P1;HPM_P2
2023/12/13 00:00:12;;;;;;;2.50;1.05;;;9.20;99.90;;;;;;6276040;22;20272;-84
2023/12/13 00:02:40;;;;;;;2.20;1.05;;;9.20;99.90;;;;;;6275701;22;20169;-85
2023/12/13 00:05:08;;;;;;;2.17;1.50;;;9.20;99.90;;;;;;6276181;22;20212;-85
2023/12/13 00:07:35;;;;;;;1.95;0.80;;;9.20;99.90;;;;;;6276389;22;20161;-85
2023/12/13 00:10:02;;;;;;;1.90;0.80;;;9.20;99.90;;;;;;6275851;22;20240;-83
2023/12/13 00:12:28;;;;;;;1.90;0.80;;;9.20;99.90;;;;;;6276369;22;20165;-84
2023/12/13 00:14:56;;;;;;;1.70;0.70;;;9.20;99.90;;;;;;6276322;22;20227;-84
2023/12/13 00:17:23;;;;;;;1.80;0.70;;;9.30;99.60;;;;;;6276326;22;20455;-84
2023/12/13 00:19:51;;;;;;;2.15;0.70;;;9.30;99.60;;;;;;6275740;22;20216;-84
2023/12/13 00:22:18;;;;;;;1.60;0.50;;;9.40;99.30;;;;;;6273413;22;20520;-83
2023/12/13 00:24:45;;;;;;;1.60;0.63;;;9.40;99.30;;;;;;6276260;22;20225;-84
2023/12/13 00:27:12;;;;;;;1.77;0.75;;;9.30;99.20;;;;;;6276192;22;20216;-84
2023/12/13 00:29:40;;;;;;;1.90;0.80;;;9.40;99.20;;;;;;6275279;22;20161;-84
2023/12/13 00:32:07;;;;;;;2.03;0.60;;;9.40;98.80;;;;;;6277016;22;20240;-86
2023/12/13 00:34:34;;;;;;;1.70;0.80;;;9.30;98.50;;;;;;6278792;22;20166;-86
2023/12/13 00:37:03;;;;;;;1.60;0.60;;;9.30;98.40;;;;;;6278678;22;20556;-84
2023/12/13 00:39:30;;;;;;;1.80;0.60;;;9.40;98.30;;;;;;6278596;22;20208;-83
2023/12/13 00:41:57;;;;;;;1.70;0.65;;;9.40;98.40;;;;;;6278573;22;20231;-85
2023/12/13 00:44:23;;;;;;;1.60;0.60;;;9.30;98.70;;;;;;6277664;22;20671;-84
2023/12/13 00:46:50;;;;;;;1.60;0.60;;;9.30;98.60;;;;;;6278215;22;20170;-84
2023/12/13 00:49:17;;;;;;;1.70;0.70;;;9.30;98.90;;;;;;6278535;22;20162;-84
2023/12/13 00:51:44;;;;;;;1.70;0.80;;;9.30;99.00;;;;;;6278206;22;20169;-85
2023/12/13 00:54:13;;;;;;;1.90;0.70;;;9.30;99.20;;;;;;6277909;22;20169;-85
2023/12/13 00:56:40;;;;;;;1.70;0.70;;;9.20;99.30;;;;;;6278437;22;20193;-85
2023/12/13 00:59:07;;;;;;;1.60;0.55;;;9.30;98.80;;;;;;6278095;22;20204;-84
2023/12/13 01:01:34;;;;;;;1.70;0.60;;;9.30;98.90;;;;;;6277889;22;20247;-83
2023/12/13 01:04:01;;;;;;;2.03;1.00;;;9.20;98.90;;;;;;6278001;22;20204;-84
2023/12/13 01:06:28;;;;;;;1.60;0.60;;;9.20;98.90;;;;;;6278064;22;20196;-85
2023/12/13 01:08:55;;;;;;;1.60;0.60;;;9.20;98.50;;;;;;6278180;22;20526;-85
2023/12/13 01:11:24;;;;;;;1.70;0.63;;;9.20;98.60;;;;;;6278014;22;20705;-84
2023/12/13 01:13:51;;;;;;;2.10;0.90;;;9.20;98.50;;;;;;6278675;22;20168;-86
2023/12/13 01:16:22;;;;;;;1.67;0.80;;;9.20;98.60;;;;;;6278206;22;20166;-84
2023/12/13 01:18:49;;;;;;;2.10;0.82;;;9.20;98.40;;;;;;6278058;22;20223;-85
2023/12/13 01:21:17;;;;;;;1.73;0.70;;;9.20;98.70;;;;;;6277831;22;20487;-84
2023/12/13 01:23:44;;;;;;;1.80;0.80;;;9.20;99.00;;;;;;6277852;22;20166;-85
2023/12/13 01:26:12;;;;;;;1.70;0.60;;;9.30;99.30;;;;;;6277868;22;20171;-84
2023/12/13 01:28:41;;;;;;;1.80;0.68;;;9.30;99.50;;;;;;6278154;22;20200;-84
2023/12/13 01:31:09;;;;;;;1.70;0.50;;;9.30;99.70;;;;;;6277923;22;20173;-84
2023/12/13 01:33:36;;;;;;;1.73;0.70;;;9.30;99.70;;;;;;6278351;22;20237;-83
2023/12/13 01:36:03;;;;;;;1.73;0.80;;;9.40;99.80;;;;;;6278233;22;20211;-84
2023/12/13 01:38:30;;;;;;;1.60;0.60;;;9.40;99.80;;;;;;6278185;22;20191;-83
2023/12/13 01:40:57;;;;;;;1.80;0.70;;;9.50;99.90;;;;;;6277993;22;20276;-82
2023/12/13 01:43:24;;;;;;;1.90;0.70;;;9.50;99.80;;;;;;6277624;22;20204;-83
2023/12/13 01:45:56;;;;;;;1.80;0.80;;;9.50;99.90;;;;;;6277334;22;20227;-84
2023/12/13 01:48:25;;;;;;;1.60;0.50;;;9.50;99.90;;;;;;6277676;22;20154;-84
2023/12/13 01:50:54;;;;;;;1.60;0.52;;;9.50;99.90;;;;;;6277570;22;20226;-83
2023/12/13 01:53:21;;;;;;;1.70;0.70;;;9.50;99.90;;;;;;6277889;22;20196;-83
2023/12/13 01:55:49;;;;;;;2.50;0.70;;;9.50;99.90;;;;;;6277956;22;20184;-84
2023/12/13 01:58:18;;;;;;;1.70;0.60;;;9.40;99.90;;;;;;6277483;22;20166;-83
2023/12/13 02:00:46;;;;;;;1.67;0.60;;;9.40;99.90;;;;;;6277404;22;20268;-84
2023/12/13 02:03:15;;;;;;;1.60;0.60;;;9.40;99.90;;;;;;6277391;22;20197;-84
2023/12/13 02:05:44;;;;;;;2.60;0.60;;;9.40;99.90;;;;;;6277998;22;20219;-85
2023/12/13 02:08:11;;;;;;;1.90;0.90;;;9.40;99.90;;;;;;6277515;22;20166;-85
2023/12/13 02:10:38;;;;;;;1.70;0.70;;;9.40;99.80;;;;;;6277420;22;20204;-84
2023/12/13 02:13:05;;;;;;;1.80;0.60;;;9.40;99.90;;;;;;6277803;22;20199;-84
2023/12/13 02:15:35;;;;;;;1.70;0.60;;;9.40;99.70;;;;;;6277797;22;20248;-84
2023/12/13 02:18:02;;;;;;;1.73;0.70;;;9.40;99.60;;;;;;6277274;22;20239;-84
2023/12/13 02:20:31;;;;;;;3.45;0.75;;;9.50;99.50;;;;;;6277538;22;20168;-84
2023/12/13 02:22:59;;;;;;;2.40;0.73;;;9.50;99.10;;;;;;6276775;22;20201;-83
2023/12/13 02:25:38;;;;;;;2.25;1.10;;;9.40;99.20;;;;;;6277638;22;20162;-84
2023/12/13 02:28:06;;;;;;;2.47;0.90;;;9.40;99.50;;;;;;6277928;22;20524;-85
2023/12/13 02:30:33;;;;;;;1.88;0.77;;;9.30;99.70;;;;;;6277534;22;20201;-84
2023/12/13 02:33:00;;;;;;;2.00;0.80;;;9.30;99.90;;;;;;6277643;22;20192;-85
2023/12/13 02:35:27;;;;;;;1.90;1.00;;;9.20;99.90;;;;;;6277570;22;20529;-85
2023/12/13 02:37:54;;;;;;;3.55;1.17;;;9.30;99.90;;;;;;6277574;22;20193;-84
2023/12/13 02:40:22;;;;;;;2.00;0.80;;;9.20;99.90;;;;;;6277582;22;20193;-84
2023/12/13 02:42:49;;;;;;;1.60;0.50;;;9.20;99.90;;;;;;6276793;22;20181;-84
2023/12/13 02:45:17;;;;;;;2.35;0.80;;;9.10;99.90;;;;;;6277030;22;20220;-85
2023/12/13 02:47:44;;;;;;;1.77;0.70;;;9.10;99.90;;;;;;6277299;22;20609;-85
2023/12/13 02:50:12;;;;;;;1.70;0.80;;;9.10;99.90;;;;;;6277366;22;20197;-84
2023/12/13 02:52:40;;;;;;;1.80;0.80;;;9.10;99.90;;;;;;6276788;22;20204;-85
2023/12/13 02:55:09;;;;;;;2.38;0.80;;;9.10;99.90;;;;;;6277335;22;20197;-84
2023/12/13 02:57:37;;;;;;;1.88;0.95;;;9.00;99.90;;;;;;6277347;22;20487;-84
2023/12/13 03:00:06;;;;;;;2.00;1.00;;;9.00;99.90;;;;;;6277248;22;20200;-84
2023/12/13 03:02:33;;;;;;;2.17;1.00;;;9.00;99.90;;;;;;6276508;22;20663;-84
2023/12/13 03:05:01;;;;;;;1.85;0.65;;;9.00;99.90;;;;;;6277294;22;20193;-84
2023/12/13 03:07:29;;;;;;;1.95;0.73;;;9.10;99.90;;;;;;6277331;22;20165;-84
2023/12/13 03:09:56;;;;;;;1.70;0.75;;;9.10;99.90;;;;;;6277380;22;20189;-84
2023/12/13 03:12:23;;;;;;;2.00;0.90;;;9.00;99.90;;;;;;6277168;22;20166;-84
2023/12/13 03:14:51;;;;;;;1.90;1.00;;;9.10;99.90;;;;;;6276520;22;20658;-84
2023/12/13 03:17:18;;;;;;;1.80;0.80;;;9.10;99.90;;;;;;6277316;22;20200;-84
2023/12/13 03:19:45;;;;;;;1.70;0.70;;;9.10;99.90;;;;;;6277439;22;20161;-84
2023/12/13 03:22:12;;;;;;;2.25;0.80;;;9.10;99.90;;;;;;6276796;22;20216;-84
2023/12/13 03:24:39;;;;;;;1.90;0.90;;;9.00;99.90;;;;;;6277290;22;20193;-84
2023/12/13 03:27:06;;;;;;;1.70;0.60;;;9.10;99.90;;;;;;6277235;22;20204;-84
2023/12/13 03:29:33;;;;;;;1.98;0.77;;;9.10;99.90;;;;;;6277028;22;20197;-84
2023/12/13 03:32:02;;;;;;;3.80;0.80;;;9.00;99.90;;;;;;6276915;22;20208;-83
2023/12/13 03:34:29;;;;;;;1.90;0.80;;;9.10;99.90;;;;;;6276871;22;20185;-83
2023/12/13 03:36:56;;;;;;;1.60;0.70;;;9.00;99.90;;;;;;6276989;22;20172;-83
2023/12/13 03:39:23;;;;;;;1.70;0.70;;;9.00;99.90;;;;;;6277230;22;20168;-84
2023/12/13 03:41:50;;;;;;;1.80;0.90;;;9.10;99.90;;;;;;6277092;22;20273;-84
2023/12/13 03:44:17;;;;;;;1.70;0.75;;;9.10;99.90;;;;;;6276551;22;20220;-84
2023/12/13 03:46:44;;;;;;;1.88;0.85;;;9.10;99.90;;;;;;6277309;22;20185;-84
2023/12/13 03:49:12;;;;;;;1.70;0.60;;;9.10;99.90;;;;;;6276735;22;20166;-84
2023/12/13 03:51:43;;;;;;;1.70;0.73;;;9.00;99.90;;;;;;6276345;22;20170;-85
2023/12/13 03:54:10;;;;;;;2.42;0.75;;;9.00;99.90;;;;;;6277367;22;20475;-83
2023/12/13 03:56:37;;;;;;;1.90;0.70;;;9.00;99.90;;;;;;6277117;22;20165;-83
2023/12/13 03:59:04;;;;;;;2.45;0.80;;;9.00;99.90;;;;;;6276376;22;20166;-85
2023/12/13 04:01:31;;;;;;;2.78;0.70;;;9.00;99.90;;;;;;6276563;22;20240;-83
2023/12/13 04:03:58;;;;;;;1.88;0.73;;;8.90;99.90;;;;;;6276933;22;20161;-84
2023/12/13 04:06:26;;;;;;;1.73;0.70;;;8.90;99.90;;;;;;6277869;22;20172;-85
2023/12/13 04:08:53;;;;;;;2.10;1.00;;;8.90;99.90;;;;;;6278987;22;20197;-85
2023/12/13 04:11:20;;;;;;;2.92;2.08;;;9.00;99.90;;;;;;6278973;22;20170;-84
2023/12/13 04:13:47;;;;;;;1.95;0.85;;;8.90;99.90;;;;;;6278447;22;20244;-84
2023/12/13 04:16:14;;;;;;;3.40;0.88;;;8.80;99.90;;;;;;6278605;22;20207;-84
2023/12/13 04:18:41;;;;;;;2.08;0.95;;;8.70;99.90;;;;;;6278365;22;20174;-83
2023/12/13 04:21:08;;;;;;;2.10;1.27;;;8.60;99.90;;;;;;6278569;22;20165;-83
2023/12/13 04:23:36;;;;;;;3.80;1.65;;;8.60;99.90;;;;;;6278471;22;20196;-83
2023/12/13 04:26:03;;;;;;;4.57;2.20;;;8.50;99.90;;;;;;6278485;22;20632;-83
2023/12/13 04:28:30;;;;;;;3.85;2.13;;;8.50;99.90;;;;;;6278847;22;20162;-83
2023/12/13 04:30:57;;;;;;;3.00;1.63;;;8.50;99.90;;;;;;6278848;22;20165;-83
2023/12/13 04:33:24;;;;;;;3.40;2.10;;;8.50;99.90;;;;;;6278780;22;20227;-83
2023/12/13 04:35:55;;;;;;;2.85;1.70;;;8.50;99.90;;;;;;6278460;22;20193;-83
2023/12/13 04:38:22;;;;;;;2.53;1.55;;;8.40;99.90;;;;;;6278417;22;20192;-83
2023/12/13 04:40:50;;;;;;;3.35;1.48;;;8.40;99.90;;;;;;6278297;22;20631;-83
2023/12/13 04:43:17;;;;;;;3.40;1.75;;;8.40;99.90;;;;;;6277766;22;20228;-84
2023/12/13 04:45:44;;;;;;;5.57;2.30;;;8.30;99.90;;;;;;6278144;22;20228;-83
2023/12/13 04:48:11;;;;;;;3.30;1.83;;;8.40;99.90;;;;;;6278525;22;20197;-83
2023/12/13 04:50:38;;;;;;;3.88;1.65;;;8.40;99.90;;;;;;6278580;22;20525;-83
2023/12/13 04:53:05;;;;;;;3.40;1.70;;;8.40;99.90;;;;;;6278162;22;20169;-84
2023/12/13 04:55:32;;;;;;;3.15;1.30;;;8.40;99.90;;;;;;6278675;22;20165;-83
2023/12/13 04:58:00;;;;;;;2.95;1.27;;;8.40;99.90;;;;;;6278123;22;20197;-83
2023/12/13 05:00:27;;;;;;;2.88;1.15;;;8.40;99.40;;;;;;6278229;22;20172;-83
2023/12/13 05:02:54;;;;;;;2.58;1.30;;;8.40;99.70;;;;;;6277917;22;20231;-83
2023/12/13 05:05:21;;;;;;;2.80;1.30;;;8.40;99.90;;;;;;6277784;22;20177;-83
2023/12/13 05:07:48;;;;;;;2.70;1.30;;;8.30;99.90;;;;;;6277790;22;20166;-83
2023/12/13 05:10:15;;;;;;;2.45;1.02;;;8.40;99.90;;;;;;6277969;22;20165;-82
2023/12/13 05:12:42;;;;;;;2.70;1.38;;;8.40;99.90;;;;;;6278028;22;20541;-83
2023/12/13 05:15:11;;;;;;;2.80;1.20;;;8.40;99.90;;;;;;6278510;22;20166;-84
2023/12/13 05:17:38;;;;;;;3.05;1.35;;;8.40;99.90;;;;;;6278551;22;20193;-83
2023/12/13 05:20:08;;;;;;;3.30;1.20;;;8.40;99.90;;;;;;6277677;22;20177;-84
2023/12/13 05:22:35;;;;;;;3.08;1.33;;;8.50;98.70;;;;;;6278266;22;20185;-83
2023/12/13 05:25:02;;;;;;;2.40;1.13;;;8.50;98.80;;;;;;6278369;22;20160;-84
2023/12/13 05:27:29;;;;;;;4.80;1.20;;;8.50;98.70;;;;;;6277446;22;20169;-84
2023/12/13 05:29:57;;;;;;;2.75;1.25;;;8.50;98.50;;;;;;6277875;22;20165;-84
2023/12/13 05:32:26;;;;;;;3.00;1.70;;;8.50;98.40;;;;;;6277713;22;20379;-83
2023/12/13 05:34:54;;;;;;;4.00;1.90;;;8.50;98.10;;;;;;6278297;22;20219;-83
2023/12/13 05:37:21;;;;;;;7.30;2.05;;;8.50;97.90;;;;;;6278146;22;20216;-84
2023/12/13 05:39:48;;;;;;;3.50;2.00;;;8.50;98.00;;;;;;6278175;22;20165;-83
2023/12/13 05:42:15;;;;;;;3.95;1.70;;;8.40;97.90;;;;;;6277869;22;20186;-84
2023/12/13 05:44:42;;;;;;;4.80;1.90;;;8.50;97.60;;;;;;6277906;22;20190;-83
2023/12/13 05:47:09;;;;;;;3.58;2.05;;;8.50;97.90;;;;;;6277682;22;20193;-83
2023/12/13 05:49:37;;;;;;;3.92;1.90;;;8.50;97.80;;;;;;6277301;22;20169;-84
2023/12/13 05:52:06;;;;;;;3.47;1.80;;;8.40;97.80;;;;;;6278219;22;20208;-84
2023/12/13 05:54:33;;;;;;;2.30;1.48;;;8.40;98.00;;;;;;6278022;22;20165;-84
2023/12/13 05:57:00;;;;;;;3.72;1.85;;;8.40;98.10;;;;;;6278057;22;20172;-84
2023/12/13 05:59:27;;;;;;;2.55;1.60;;;8.30;98.40;;;;;;6274948;22;20204;-83
2023/12/13 06:01:54;;;;;;;3.00;1.50;;;8.30;98.50;;;;;;6277225;22;20197;-84
2023/12/13 06:04:21;;;;;;;2.53;1.60;;;8.30;98.00;;;;;;6277232;22;20165;-84
2023/12/13 06:06:49;;;;;;;2.78;1.63;;;8.40;97.70;;;;;;6277024;22;20162;-85
2023/12/13 06:09:16;;;;;;;2.53;1.45;;;8.30;97.80;;;;;;6276015;22;20201;-84
2023/12/13 06:11:43;;;;;;;2.35;1.05;;;8.30;98.10;;;;;;6276451;22;20172;-85
2023/12/13 06:14:10;;;;;;;3.55;1.05;;;8.30;98.10;;;;;;6276380;22;20161;-85
2023/12/13 06:16:37;;;;;;;2.00;0.93;;;8.30;98.10;;;;;;6276803;22;20173;-86
2023/12/13 06:19:05;;;;;;;2.53;1.10;;;8.30;98.20;;;;;;6276261;22;20648;-85
2023/12/13 06:21:33;;;;;;;2.47;0.80;;;8.20;98.50;;;;;;6276636;22;20165;-86
2023/12/13 06:24:02;;;;;;;2.17;1.10;;;8.20;98.40;;;;;;6275525;22;20268;-84
2023/12/13 06:26:29;;;;;;;3.65;0.80;;;8.20;98.50;;;;;;6276282;22;20212;-86
2023/12/13 06:28:56;;;;;;;2.20;1.20;;;8.20;98.50;;;;;;6275943;22;20624;-86
2023/12/13 06:31:23;;;;;;;3.10;1.70;;;8.10;98.20;;;;;;6276596;22;20639;-86
2023/12/13 06:33:50;;;;;;;5.45;3.33;;;8.10;98.20;;;;;;6276324;22;20616;-86
2023/12/13 06:36:17;;;;;;;5.15;2.80;;;8.10;98.20;;;;;;6276544;22;20193;-86
2023/12/13 06:38:46;;;;;;;4.90;2.78;;;8.10;98.00;;;;;;6276447;22;20172;-86
2023/12/13 06:41:14;;;;;;;4.68;2.13;;;8.10;98.00;;;;;;6276173;22;20165;-85
2023/12/13 06:43:41;;;;;;;3.40;2.30;;;8.10;98.30;;;;;;6276671;22;20220;-87
2023/12/13 06:46:08;;;;;;;3.35;2.10;;;8.10;98.40;;;;;;6276282;22;20189;-86
2023/12/13 06:48:35;;;;;;;13.38;3.60;;;8.10;98.40;;;;;;6276819;22;20192;-86
2023/12/13 06:51:02;;;;;;;6.25;3.85;;;8.10;98.50;;;;;;6276310;22;20172;-84
2023/12/13 06:53:29;;;;;;;6.50;3.70;;;8.10;98.20;;;;;;6276288;22;20620;-86
2023/12/13 06:55:58;;;;;;;5.22;3.28;;;8.00;97.90;;;;;;6274770;22;20208;-80
2023/12/13 06:58:27;;;;;;;4.65;2.42;;;8.00;97.90;;;;;;6231852;22;20197;-85
2023/12/13 07:00:54;;;;;;;11.05;6.00;;;8.00;97.70;;;;;;6276223;22;20197;-84
2023/12/13 07:03:27;;;;;;;12.45;7.00;;;7.90;97.90;;;;;;6276759;22;20239;-84
2023/12/13 07:05:54;;;;;;;8.52;4.75;;;8.00;97.90;;;;;;6276300;22;20153;-83
2023/12/13 07:08:22;;;;;;;8.43;5.20;;;8.00;97.90;;;;;;6276174;22;20197;-83
2023/12/13 07:10:50;;;;;;;5.75;3.78;;;8.00;97.60;;;;;;6276703;22;20169;-82
2023/12/13 07:13:18;;;;;;;4.65;2.97;;;7.90;97.70;;;;;;6275727;22;20170;-83
2023/12/13 07:15:46;;;;;;;6.20;4.00;;;7.90;97.70;;;;;;6275320;22;20540;-82
2023/12/13 07:18:13;;;;;;;4.05;2.42;;;7.90;97.80;;;;;;6275816;22;20248;-83
2023/12/13 07:20:50;;;;;;;5.35;3.75;;;7.90;98.00;;;;;;6275240;22;20241;-83
2023/12/13 07:23:18;;;;;;;5.30;3.97;;;7.90;98.00;;;;;;6275235;22;20235;-83
2023/12/13 07:25:45;;;;;;;5.47;4.28;;;7.90;98.50;;;;;;6261598;22;20223;-85
2023/12/13 07:28:13;;;;;;;6.38;3.90;;;8.00;98.40;;;;;;6269184;22;20264;-85
2023/12/13 07:30:41;;;;;;;4.05;3.20;;;8.00;98.40;;;;;;6271011;22;20165;-84
2023/12/13 07:33:10;;;;;;;5.63;3.70;;;8.00;98.60;;;;;;6274460;22;20511;-85
2023/12/13 07:35:37;;;;;;;7.90;3.53;;;7.90;98.60;;;;;;6275110;22;20193;-86
2023/12/13 07:38:04;;;;;;;5.18;3.70;;;8.00;98.70;;;;;;6273304;22;20200;-86
2023/12/13 07:40:32;;;;;;;3.83;2.15;;;8.00;98.70;;;;;;6275420;22;20192;-85
2023/12/13 07:42:59;;;;;;;5.15;2.80;;;8.00;98.60;;;;;;6277556;22;20505;-85
2023/12/13 07:45:25;;;;;;;5.30;3.88;;;8.00;98.20;;;;;;6277208;22;20211;-85
2023/12/13 07:47:52;;;;;;;4.00;2.50;;;8.10;97.90;;;;;;6276995;22;20244;-86
2023/12/13 07:50:21;;;;;;;3.60;2.45;;;8.00;97.90;;;;;;6277736;22;20166;-86
2023/12/13 07:52:47;;;;;;;4.95;2.30;;;8.00;98.20;;;;;;6277919;22;20220;-86
2023/12/13 07:55:19;;;;;;;3.60;2.80;;;8.10;97.70;;;;;;6278720;22;20169;-86
2023/12/13 07:57:46;;;;;;;3.83;2.65;;;8.00;97.70;;;;;;6278808;22;20447;-86
2023/12/13 08:00:14;;;;;;;6.05;3.47;;;7.90;97.80;;;;;;6278515;22;20189;-86
2023/12/13 08:02:41;;;;;;;7.25;5.68;;;7.90;98.00;;;;;;6278433;22;20224;-86
2023/12/13 08:05:08;;;;;;;5.15;3.35;;;7.90;98.10;;;;;;6278796;22;20529;-87
2023/12/13 08:07:37;;;;;;;4.20;2.85;;;7.90;98.10;;;;;;6278444;22;20165;-87
2023/12/13 08:10:06;;;;;;;3.78;2.70;;;7.90;98.10;;;;;;6278329;22;20197;-87
2023/12/13 08:12:34;;;;;;;3.70;2.25;;;8.00;98.20;;;;;;6278738;22;20183;-85
2023/12/13 08:15:00;;;;;;;4.10;3.05;;;8.10;98.20;;;;;;6278283;22;20165;-87
2023/12/13 08:17:27;;;;;;;3.70;2.65;;;8.10;98.20;;;;;;6278753;22;20200;-87
2023/12/13 08:19:55;;;;;;;4.00;3.55;;;8.10;97.60;;;;;;6278775;22;20244;-87
2023/12/13 08:22:22;;;;;;;4.20;3.05;;;8.10;97.80;;;;;;6278489;22;20245;-87
2023/12/13 08:24:50;;;;;;;3.30;2.55;;;8.10;98.10;;;;;;6278554;22;20491;-87
2023/12/13 08:27:17;;;;;;;4.07;3.30;;;8.10;97.90;;;;;;6275480;22;20256;-87
2023/12/13 08:29:44;;;;;;;3.15;2.47;;;8.20;98.00;;;;;;6278095;22;20197;-87
2023/12/13 08:32:11;;;;;;;3.95;2.42;;;8.20;97.50;;;;;;6278484;22;20542;-87
2023/12/13 08:34:38;;;;;;;4.15;2.40;;;8.30;97.80;;;;;;6278549;22;20526;-87
2023/12/13 08:37:05;;;;;;;4.82;2.88;;;8.40;98.00;;;;;;6278089;22;20201;-87
2023/12/13 08:39:32;;;;;;;3.33;2.17;;;8.50;98.20;;;;;;6278105;22;20166;-87
2023/12/13 08:42:00;;;;;;;4.75;2.75;;;8.60;98.10;;;;;;6278311;22;20166;-87
2023/12/13 08:44:27;;;;;;;6.10;3.40;;;8.60;98.00;;;;;;6277105;22;20280;-86
2023/12/13 08:46:55;;;;;;;4.32;2.50;;;8.70;97.90;;;;;;6276083;22;20176;-87
2023/12/13 08:49:21;;;;;;;4.68;3.50;;;8.80;97.90;;;;;;6276209;22;20527;-88
2023/12/13 08:51:48;;;;;;;4.07;2.95;;;8.90;97.70;;;;;;6275933;22;20249;-88
2023/12/13 08:54:15;;;;;;;3.55;2.92;;;9.00;97.60;;;;;;6276487;22;20244;-88
2023/12/13 08:56:42;;;;;;;3.85;2.40;;;9.10;97.60;;;;;;6276398;22;20166;-88
2023/12/13 08:59:10;;;;;;;4.10;2.08;;;9.20;97.10;;;;;;6276039;22;20188;-83
2023/12/13 09:01:37;;;;;;;2.95;2.17;;;9.20;96.60;;;;;;6276371;22;20170;-88
2023/12/13 09:04:04;;;;;;;3.33;2.40;;;9.30;96.30;;;;;;6276396;22;20276;-87
2023/12/13 09:06:32;;;;;;;3.45;1.90;;;9.40;96.10;;;;;;6275641;22;20531;-88
2023/12/13 09:08:59;;;;;;;3.47;2.23;;;9.40;96.00;;;;;;6276141;22;20489;-87
2023/12/13 09:11:25;;;;;;;3.60;2.30;;;9.50;95.80;;;;;;6276306;22;20899;-88
2023/12/13 09:13:52;;;;;;;5.63;3.42;;;9.60;95.70;;;;;;6276083;22;20628;-85
2023/12/13 09:16:21;;;;;;;4.95;3.83;;;9.60;95.00;;;;;;6275924;22;20197;-88
2023/12/13 09:18:48;;;;;;;4.57;2.72;;;9.60;94.60;;;;;;6276275;22;20204;-88
2023/12/13 09:21:15;;;;;;;6.53;2.13;;;9.50;94.00;;;;;;6276645;22;20525;-88
2023/12/13 09:23:41;;;;;;;3.80;2.70;;;9.50;94.20;;;;;;6276419;22;20814;-88
2023/12/13 09:26:13;;;;;;;5.00;2.80;;;9.40;94.10;;;;;;6276492;22;20239;-88
2023/12/13 09:28:40;;;;;;;5.57;3.65;;;9.40;93.70;;;;;;6276403;22;20189;-88
2023/12/13 09:31:07;;;;;;;7.30;3.22;;;9.40;93.80;;;;;;6276289;22;20166;-87
2023/12/13 09:33:36;;;;;;;5.20;3.15;;;9.50;93.70;;;;;;6276412;22;20170;-88
2023/12/13 09:36:03;;;;;;;5.00;3.05;;;9.50;93.10;;;;;;6276592;22;20161;-87
2023/12/13 09:38:31;;;;;;;5.38;3.53;;;9.40;93.70;;;;;;6275672;22;20245;-87
2023/12/13 09:40:58;;;;;;;4.30;2.20;;;9.30;94.10;;;;;;6276154;22;20257;-87
2023/12/13 09:43:26;;;;;;;4.10;2.10;;;9.20;94.20;;;;;;6275858;22;20652;-88
2023/12/13 09:45:54;;;;;;;10.43;7.07;;;9.20;94.20;;;;;;6228250;22;1128770;-87
2023/12/13 09:48:23;;;;;;;5.38;4.43;;;9.10;94.20;;;;;;6277294;22;20200;-87
2023/12/13 09:50:53;;;;;;;4.68;3.97;;;9.10;94.60;;;;;;6277942;22;20168;-88
2023/12/13 09:53:21;;;;;;;3.60;2.70;;;9.00;94.80;;;;;;6277802;22;20204;-88
2023/12/13 09:55:48;;;;;;;4.55;2.88;;;9.00;94.90;;;;;;6277703;22;20200;-88
2023/12/13 09:58:15;;;;;;;3.35;2.63;;;9.00;95.00;;;;;;6277635;22;20256;-88
2023/12/13 10:00:43;;;;;;;4.03;2.30;;;9.10;95.30;;;;;;6277641;22;20241;-87
2023/12/13 10:03:10;;;;;;;3.88;2.67;;;9.20;95.60;;;;;;6276892;22;20166;-87
2023/12/13 10:05:40;;;;;;;3.78;2.38;;;9.30;95.20;;;;;;6276999;22;20197;-87
2023/12/13 10:08:10;;;;;;;3.50;2.60;;;9.40;94.70;;;;;;6277881;22;20157;-87
2023/12/13 10:10:37;;;;;;;7.88;2.83;;;9.40;94.10;;;;;;6277605;22;20162;-88
2023/12/13 10:13:06;;;;;;;9.23;4.78;;;9.30;94.50;;;;;;6277098;22;20654;-87
2023/12/13 10:15:33;;;;;;;11.50;7.00;;;9.30;94.80;;;;;;6277033;22;20166;-87
2023/12/13 10:18:01;;;;;;;5.05;4.10;;;9.40;94.60;;;;;;6277157;22;20249;-87
2023/12/13 10:20:31;;;;;;;4.30;3.08;;;9.40;94.70;;;;;;6277506;22;20215;-87
2023/12/13 10:22:58;;;;;;;3.75;2.78;;;9.50;94.80;;;;;;6277508;22;20491;-87
2023/12/13 10:25:26;;;;;;;3.83;2.45;;;9.70;94.40;;;;;;6277456;22;20221;-86
2023/12/13 10:27:55;;;;;;;3.30;2.08;;;9.90;94.40;;;;;;6277006;22;20196;-87
2023/12/13 10:30:22;;;;;;;5.20;2.47;;;10.20;92.80;;;;;;6276888;22;20216;-88
2023/12/13 10:32:50;;;;;;;5.03;3.00;;;10.20;92.20;;;;;;6277520;22;20235;-88
2023/12/13 10:35:17;;;;;;;3.20;2.10;;;10.30;92.20;;;;;;6277162;22;20742;-87
2023/12/13 10:37:47;;;;;;;2.97;2.27;;;10.40;92.10;;;;;;6277013;22;20389;-89
2023/12/13 10:40:17;;;;;;;2.50;1.53;;;10.60;92.10;;;;;;6276987;22;20945;-88
2023/12/13 10:42:52;;;;;;;2.93;1.47;;;10.80;91.70;;;;;;6276884;22;20391;-88
2023/12/13 10:45:23;;;;;;;3.00;1.77;;;11.00;91.00;;;;;;6276545;22;20517;-88
2023/12/13 10:47:56;;;;;;;4.47;2.30;;;11.00;90.70;;;;;;6277464;22;20416;-88
2023/12/13 10:50:24;;;;;;;3.30;2.47;;;11.00;90.70;;;;;;6276160;22;20387;-88
2023/12/13 10:52:52;;;;;;;3.43;1.77;;;11.00;90.70;;;;;;6276764;22;20467;-88
2023/12/13 10:55:20;;;;;;;3.53;1.77;;;11.00;90.80;;;;;;6277086;22;20420;-88
2023/12/13 10:57:48;;;;;;;4.17;2.50;;;11.10;90.60;;;;;;6277122;22;20419;-88
2023/12/13 11:00:17;;;;;;;4.43;2.13;;;11.10;89.20;;;;;;6277206;22;20396;-88
2023/12/13 11:02:50;;;;;;;4.00;2.33;;;11.10;87.80;;;;;;6277223;22;20412;-88
2023/12/13 11:05:18;;;;;;;3.10;1.80;;;11.10;86.00;;;;;;6276742;22;20988;-89
2023/12/13 11:07:46;;;;;;;4.03;2.03;;;11.00;85.50;;;;;;6276464;22;20419;-86
2023/12/13 11:10:13;;;;;;;3.40;1.80;;;10.90;85.90;;;;;;6276373;22;20487;-87
2023/12/13 11:12:49;;;;;;;3.23;1.20;;;10.90;86.60;;;;;;6277031;22;20468;-88
2023/12/13 11:15:17;;;;;;;2.43;1.30;;;10.80;86.30;;;;;;6277197;22;20449;-88
2023/12/13 11:17:48;;;;;;;2.77;1.60;;;10.80;86.40;;;;;;6276598;22;20395;-87
2023/12/13 11:20:15;;;;;;;3.90;1.83;;;10.70;87.40;;;;;;6277211;22;20390;-88
2023/12/13 11:22:45;;;;;;;3.03;1.40;;;10.70;87.60;;;;;;6276990;22;20438;-89
2023/12/13 11:25:13;;;;;;;2.60;1.10;;;10.70;87.70;;;;;;6277387;22;20443;-87
2023/12/13 11:27:53;;;;;;;2.53;1.33;;;10.70;88.40;;;;;;6276951;22;20391;-89
2023/12/13 11:30:22;;;;;;;3.40;1.30;;;10.70;89.20;;;;;;6276680;22;20383;-88
2023/12/13 11:32:51;;;;;;;3.23;1.80;;;10.70;89.20;;;;;;6276938;22;20422;-89
2023/12/13 11:35:19;;;;;;;3.20;1.43;;;10.80;90.10;;;;;;6276971;22;20407;-89
2023/12/13 11:37:50;;;;;;;3.50;1.97;;;10.80;90.20;;;;;;6276994;22;20392;-90
2023/12/13 11:40:17;;;;;;;3.60;1.70;;;10.80;89.60;;;;;;6276834;22;20372;-89
2023/12/13 11:42:44;;;;;;;3.37;1.53;;;10.90;88.60;;;;;;6275822;22;20761;-89
2023/12/13 11:45:12;;;;;;;1.93;1.07;;;10.90;88.40;;;;;;6276308;22;20522;-88
2023/12/13 11:47:40;;;;;;;5.33;1.10;;;10.80;88.10;;;;;;6276808;22;20471;-88
2023/12/13 11:50:10;;;;;;;2.53;1.07;;;10.80;89.00;;;;;;6276521;22;20423;-88
2023/12/13 11:52:37;;;;;;;2.73;1.20;;;10.80;89.80;;;;;;6276892;22;20708;-89
2023/12/13 11:55:06;;;;;;;2.47;1.10;;;10.80;90.20;;;;;;6276793;22;20419;-88
2023/12/13 11:57:34;;;;;;;2.00;1.07;;;10.80;90.30;;;;;;6276745;22;20431;-86
2023/12/13 12:00:01;;;;;;;2.27;1.17;;;10.80;90.20;;;;;;6277009;22;20392;-88
2023/12/13 12:02:29;;;;;;;2.47;1.33;;;10.80;89.40;;;;;;6276018;22;20416;-89
2023/12/13 12:04:56;;;;;;;2.10;1.00;;;10.80;90.00;;;;;;6276671;22;20459;-89
2023/12/13 12:07:23;;;;;;;5.90;1.27;;;10.80;90.20;;;;;;6276316;22;20428;-89
2023/12/13 12:09:51;;;;;;;2.30;1.10;;;10.80;90.50;;;;;;6276512;22;20475;-88
2023/12/13 12:12:19;;;;;;;2.13;1.00;;;10.80;90.60;;;;;;6276221;22;20420;-88
2023/12/13 12:14:48;;;;;;;2.60;1.50;;;10.80;90.50;;;;;;6276452;22;20573;-89
2023/12/13 12:17:19;;;;;;;2.70;1.60;;;10.80;90.70;;;;;;6271832;22;20906;-89
2023/12/13 12:19:47;;;;;;;2.60;1.13;;;10.80;91.00;;;;;;6276291;22;20384;-89
2023/12/13 12:22:15;;;;;;;2.90;1.27;;;10.70;91.20;;;;;;6276000;22;20399;-88
2023/12/13 12:24:41;;;;;;;3.43;1.80;;;10.70;91.30;;;;;;6275595;22;20981;-89
2023/12/13 12:27:11;;;;;;;3.37;2.30;;;10.70;91.20;;;;;;6277013;22;20453;-89
2023/12/13 12:29:38;;;;;;;2.60;2.03;;;10.70;91.00;;;;;;6277262;22;20445;-89
2023/12/13 12:32:08;;;;;;;3.37;1.70;;;10.80;91.10;;;;;;6275829;22;20406;-89
2023/12/13 12:34:36;;;;;;;3.00;1.30;;;10.80;91.40;;;;;;6277644;22;20401;-89
2023/12/13 12:37:08;;;;;;;2.23;1.10;;;10.80;91.50;;;;;;6277707;22;20753;-87
2023/12/13 12:39:40;;;;;;;2.23;0.90;;;10.90;91.50;;;;;;6277479;22;20416;-88
2023/12/13 12:42:07;;;;;;;2.30;1.17;;;10.90;91.00;;;;;;6278295;22;20384;-88
2023/12/13 12:44:34;;;;;;;5.40;1.13;;;10.90;90.40;;;;;;6277849;22;20817;-88
2023/12/13 12:47:02;;;;;;;2.20;0.90;;;10.90;90.20;;;;;;6278271;22;20434;-89
2023/12/13 12:49:29;;;;;;;2.80;1.10;;;10.90;90.40;;;;;;6278281;22;20406;-88
2023/12/13 12:51:56;;;;;;;4.27;1.43;;;10.80;90.50;;;;;;6277996;22;20407;-88
2023/12/13 12:54:25;;;;;;;5.20;1.63;;;10.80;90.50;;;;;;6278359;22;20430;-88
2023/12/13 12:56:52;;;;;;;4.60;1.57;;;10.80;90.60;;;;;;6278386;22;20404;-89